Forside
METAR-TAF:

METAR-TAF

Lufthavne :

Nukus, Usbekistan

Breddekreds: 42-28-48N, længdekreds: 059-37-48E, højde: 77 m

Aktuelle vejr

Denne rapport blev lavet for 22 minutter siden, kl. 23:30 UTC
Vind 6 kt fra sydvest
Temperatur 15°C
Fugtighed 48%
Tryk 1017 hPa
Sigt 10 km eller mere
ingen skyer under 1500m og ingen cumulonimbus

METAR: UTNN 202330Z 22006KT CAVOK 15/04 Q1017 R33/CLRD60 NOSIG

Tid: 04:52 (23:52 UTC)

Vejrudsigter

Denne rapport blev lavet for 52 minutter siden, kl. 23:00 UTC
Foreløbig gælder fra 21 på 00 UTC til 21 på 24 UTC
Vind 10 kt fra vest med vindstød på up til 20 kt
Sigt 10 km eller mere
Spredte skyer i en højde af 4000 ft
Spredte skyer i en højde af 10000 ft
Midlertidig
fra 21 på 00 UTC til 21 på 06 UTC
Sigt: 5000 m
Spredte skyer i en højde af 4000 ft, Cumulonimbus.
Brudte skyer i en højde af 10000 ft
let regnbyger, dis

TAF: UTNN 202300Z 2100/2124 28010G20KT 9999 SCT040 SCT100 TEMPO 2100/2106 5000 -SHRA BR SCT040CB BKN100

Vejrobservationer og prognoser fra mere end 4000 lufthavne (METAR og TAF).

De gule og røde prikker repræsenterer de meteorologiske stationer.

Flyt musen over at se navnet på stationen.

Så klik over at se vejr observationer og prognoser.

At skifte det kort: Klik på de grønne knapper med et sort kors for at zoome ind; på den grønne knap med en bindestreg for at zoome ud; eller på de grønne pile for tilstødende kort.


METAR-TAF: